Kezdőlap
METAR-TAF:

METAR-TAF

Repülőterek :

Chariton Municipal Airport

Chariton, Iowa, Amerikai Egyesült Államok

földrajzi szélesség: 41-02N, földrajzi hosszúság: 093-22W, magasság: 320 m

Jelenlegi meteorológiai megfigyelések

A jelentés 11 perccel ezelõtt készült, 14:55 UTC
Északkeleti szél 6 kt
Hőmérséklet -11°C
Páratartalom 100%
Légköri nyomás 1019 hPa
Látótávolság: 16.1 km
Derült ég

METAR: KCNC 151455Z AUTO 05006KT 10SM CLR M11/M11 A3010 RMK AO2

Idő: 09:06 (15:06 UTC)


TAF: hiányzik

Meteorológiai megfigyelések és előrejelzések több, mint 4000 repülőtéren (METAR és TAF jelentéseket).

A térképen piros és sárga pontok jelzik az elérhető meteorológiai állomásokat.

Mozgassa az egeret a pont fölött, hogy megjelenjen az állomás neve.

Azután kattintson az időjárási megfigyelések és előrejelzések megtekintéséhez.

A térkép megváltoztatása: kattintson a fekete keresztel jelölt zöld gombra ráközelítéshez, a vonallal jelölt zöld gombra távolításhoz, vagy a zöld nyilakra a szomszédos térképek eléréséhez.


METAR-TAF: